sensor_id;sensor_type;location;lat;lon;timestamp;pressure;altitude;pressure_sealevel;temperature;humidity
43681;BME280;29281;50.356;30.894;2023-02-21T00:00:16;97946.48;;;3.31;100.00
43681;BME280;29281;50.356;30.894;2023-02-21T00:01:38;97942.41;;;3.27;100.00
43681;BME280;29281;50.356;30.894;2023-02-21T00:03:03;97950.39;;;3.26;100.00
43681;BME280;29281;50.356;30.894;2023-02-21T00:04:24;97944.34;;;3.36;100.00
43681;BME280;29281;50.356;30.894;2023-02-21T00:05:47;97940.91;;;3.36;100.00
43681;BME280;29281;50.356;30.894;2023-02-21T00:07:09;97949.36;;;3.39;100.00
43681;BME280;29281;50.356;30.894;2023-02-21T00:08:30;97938.98;;;3.38;100.00
43681;BME280;29281;50.356;30.894;2023-02-21T00:09:53;97951.26;;;3.37;100.00
43681;BME280;29281;50.356;30.894;2023-02-21T00:11:16;97936.75;;;3.44;100.00
43681;BME280;29281;50.356;30.894;2023-02-21T00:12:38;97938.87;;;3.39;100.00
43681;BME280;29281;50.356;30.894;2023-02-21T00:14:00;97936.02;;;3.42;100.00
43681;BME280;29281;50.356;30.894;2023-02-21T00:15:26;97936.75;;;3.44;100.00
43681;BME280;29281;50.356;30.894;2023-02-21T00:16:50;97915.42;;;3.49;100.00
43681;BME280;29281;50.356;30.894;2023-02-21T00:18:09;97916.00;;;3.52;100.00
43681;BME280;29281;50.356;30.894;2023-02-21T00:19:30;97922.68;;;3.45;100.00
43681;BME280;29281;50.356;30.894;2023-02-21T00:20:52;97903.70;;;3.42;100.00
43681;BME280;29281;50.356;30.894;2023-02-21T00:22:15;97891.80;;;3.49;100.00
43681;BME280;29281;50.356;30.894;2023-02-21T00:23:38;97890.03;;;3.61;100.00
43681;BME280;29281;50.356;30.894;2023-02-21T00:24:59;97881.05;;;3.52;100.00
43681;BME280;29281;50.356;30.894;2023-02-21T00:26:22;97886.39;;;3.39;100.00
43681;BME280;29281;50.356;30.894;2023-02-21T00:27:44;97881.87;;;3.41;100.00
43681;BME280;29281;50.356;30.894;2023-02-21T00:29:05;97881.05;;;3.52;100.00
43681;BME280;29281;50.356;30.894;2023-02-21T00:30:27;97890.69;;;3.40;100.00
43681;BME280;29281;50.356;30.894;2023-02-21T00:31:49;97883.55;;;3.42;100.00
43681;BME280;29281;50.356;30.894;2023-02-21T00:33:11;97894.31;;;3.50;100.00
43681;BME280;29281;50.356;30.894;2023-02-21T00:34:31;97888.92;;;3.52;100.00
43681;BME280;29281;50.356;30.894;2023-02-21T00:35:53;97895.39;;;3.59;100.00
43681;BME280;29281;50.356;30.894;2023-02-21T00:37:14;97899.23;;;3.66;100.00
43681;BME280;29281;50.356;30.894;2023-02-21T00:38:40;97897.41;;;3.56;100.00
43681;BME280;29281;50.356;30.894;2023-02-21T00:40:02;97889.69;;;3.65;100.00
43681;BME280;29281;50.356;30.894;2023-02-21T00:41:23;97885.73;;;3.71;100.00
43681;BME280;29281;50.356;30.894;2023-02-21T00:42:43;97880.86;;;3.77;100.00
43681;BME280;29281;50.356;30.894;2023-02-21T00:44:06;97875.01;;;3.74;100.00
43681;BME280;29281;50.356;30.894;2023-02-21T00:45:29;97880.48;;;3.71;100.00
43681;BME280;29281;50.356;30.894;2023-02-21T00:46:52;97880.14;;;3.64;100.00
43681;BME280;29281;50.356;30.894;2023-02-21T00:48:21;97885.97;;;3.68;100.00
43681;BME280;29281;50.356;30.894;2023-02-21T00:49:43;97888.85;;;3.65;100.00
43681;BME280;29281;50.356;30.894;2023-02-21T00:51:03;97884.67;;;3.73;100.00
43681;BME280;29281;50.356;30.894;2023-02-21T00:52:26;97858.19;;;3.65;100.00
43681;BME280;29281;50.356;30.894;2023-02-21T00:53:48;97855.30;;;3.68;100.00
43681;BME280;29281;50.356;30.894;2023-02-21T00:55:08;97874.41;;;3.70;100.00
43681;BME280;29281;50.356;30.894;2023-02-21T00:56:31;97881.09;;;3.74;100.00
43681;BME280;29281;50.356;30.894;2023-02-21T00:57:52;97855.22;;;3.81;100.00
43681;BME280;29281;50.356;30.894;2023-02-21T00:59:13;97847.34;;;3.81;100.00
43681;BME280;29281;50.356;30.894;2023-02-21T01:00:36;97844.45;;;3.84;100.00
43681;BME280;29281;50.356;30.894;2023-02-21T01:01:58;97839.69;;;3.89;100.00
43681;BME280;29281;50.356;30.894;2023-02-21T01:03:23;97843.73;;;3.82;100.00
43681;BME280;29281;50.356;30.894;2023-02-21T01:04:43;97838.26;;;3.74;100.00
43681;BME280;29281;50.356;30.894;2023-02-21T01:06:07;97843.39;;;3.64;100.00
43681;BME280;29281;50.356;30.894;2023-02-21T01:07:29;97838.14;;;3.64;100.00
43681;BME280;29281;50.356;30.894;2023-02-21T01:08:50;97841.61;;;3.65;100.00
43681;BME280;29281;50.356;30.894;2023-02-21T01:10:15;97839.44;;;3.59;100.00
43681;BME280;29281;50.356;30.894;2023-02-21T01:11:35;97832.63;;;3.67;100.00
43681;BME280;29281;50.356;30.894;2023-02-21T01:12:56;97833.84;;;3.74;100.00
43681;BME280;29281;50.356;30.894;2023-02-21T01:14:17;97842.09;;;3.81;100.00
43681;BME280;29281;50.356;30.894;2023-02-21T01:15:38;97832.63;;;3.67;100.00
43681;BME280;29281;50.356;30.894;2023-02-21T01:17:01;97839.81;;;3.65;100.00
43681;BME280;29281;50.356;30.894;2023-02-21T01:18:23;97834.33;;;3.79;100.00
43681;BME280;29281;50.356;30.894;2023-02-21T01:19:45;97826.80;;;3.75;100.00
43681;BME280;29281;50.356;30.894;2023-02-21T01:21:16;97830.61;;;3.82;100.00
43681;BME280;29281;50.356;30.894;2023-02-21T01:22:35;97837.80;;;3.80;100.00
43681;BME280;29281;50.356;30.894;2023-02-21T01:23:58;97829.30;;;3.87;100.00
43681;BME280;29281;50.356;30.894;2023-02-21T01:25:19;97829.19;;;3.89;100.00
43681;BME280;29281;50.356;30.894;2023-02-21T01:26:42;97841.48;;;3.77;100.00
43681;BME280;29281;50.356;30.894;2023-02-21T01:28:02;97837.91;;;3.78;100.00
43681;BME280;29281;50.356;30.894;2023-02-21T01:29:25;97835.40;;;3.77;100.00
43681;BME280;29281;50.356;30.894;2023-02-21T01:30:48;97820.10;;;3.82;100.00
43681;BME280;29281;50.356;30.894;2023-02-21T01:32:11;97838.37;;;3.83;100.00
43681;BME280;29281;50.356;30.894;2023-02-21T01:33:38;97843.98;;;3.90;100.00
43681;BME280;29281;50.356;30.894;2023-02-21T01:35:00;97836.34;;;3.87;100.00
43681;BME280;29281;50.356;30.894;2023-02-21T01:36:20;97836.33;;;3.98;100.00
43681;BME280;29281;50.356;30.894;2023-02-21T01:37:43;97851.25;;;3.98;100.00
43681;BME280;29281;50.356;30.894;2023-02-21T01:39:09;97846.72;;;4.00;100.00
43681;BME280;29281;50.356;30.894;2023-02-21T01:40:30;97848.77;;;3.96;100.00
43681;BME280;29281;50.356;30.894;2023-02-21T01:41:52;97843.97;;;4.01;100.00
43681;BME280;29281;50.356;30.894;2023-02-21T01:43:14;97834.69;;;3.97;100.00
43681;BME280;29281;50.356;30.894;2023-02-21T01:44:40;97844.69;;;4.03;100.00
43681;BME280;29281;50.356;30.894;2023-02-21T01:46:03;97840.88;;;4.07;100.00
43681;BME280;29281;50.356;30.894;2023-02-21T01:47:25;97858.08;;;4.11;100.00
43681;BME280;29281;50.356;30.894;2023-02-21T01:48:46;97852.68;;;4.24;100.00
43681;BME280;29281;50.356;30.894;2023-02-21T01:51:39;97844.91;;;4.22;100.00
43681;BME280;29281;50.356;30.894;2023-02-21T01:53:02;97863.45;;;4.10;100.00
43681;BME280;29281;50.356;30.894;2023-02-21T01:54:28;97883.50;;;4.11;100.00
43681;BME280;29281;50.356;30.894;2023-02-21T01:55:48;97880.49;;;4.15;100.00
43681;BME280;29281;50.356;30.894;2023-02-21T01:57:09;97866.65;;;4.24;100.00
43681;BME280;29281;50.356;30.894;2023-02-21T01:58:32;97875.00;;;4.18;100.00
43681;BME280;29281;50.356;30.894;2023-02-21T01:59:58;97869.61;;;4.31;100.00
43681;BME280;29281;50.356;30.894;2023-02-21T02:01:26;97862.33;;;4.35;100.00
43681;BME280;29281;50.356;30.894;2023-02-21T02:02:52;97868.50;;;4.45;100.00
43681;BME280;29281;50.356;30.894;2023-02-21T02:04:13;97871.84;;;4.47;100.00
43681;BME280;29281;50.356;30.894;2023-02-21T02:05:35;97865.88;;;4.45;100.00
43681;BME280;29281;50.356;30.894;2023-02-21T02:06:57;97863.37;;;4.54;100.00
43681;BME280;29281;50.356;30.894;2023-02-21T02:08:19;97874.13;;;4.51;100.00
43681;BME280;29281;50.356;30.894;2023-02-21T02:09:41;97861.84;;;4.41;100.00
43681;BME280;29281;50.356;30.894;2023-02-21T02:11:05;97850.47;;;4.51;100.00
43681;BME280;29281;50.356;30.894;2023-02-21T02:18:42;97857.75;;;4.48;100.00
43681;BME280;29281;50.356;30.894;2023-02-21T02:22:12;97852.26;;;4.51;100.00
43681;BME280;29281;50.356;30.894;2023-02-21T02:31:35;97855.78;;;4.18;100.00
43681;BME280;29281;50.356;30.894;2023-02-21T02:34:54;97856.98;;;4.03;100.00
43681;BME280;29281;50.356;30.894;2023-02-21T02:35:31;97851.50;;;4.06;100.00
43681;BME280;29281;50.356;30.894;2023-02-21T02:36:39;97853.76;;;3.99;100.00
43681;BME280;29281;50.356;30.894;2023-02-21T02:38:56;97857.10;;;4.01;100.00
43681;BME280;29281;50.356;30.894;2023-02-21T02:41:20;97846.72;;;4.00;100.00
43681;BME280;29281;50.356;30.894;2023-02-21T02:43:34;97852.34;;;4.06;100.00
43681;BME280;29281;50.356;30.894;2023-02-21T02:44:41;97848.64;;;4.09;100.00
43681;BME280;29281;50.356;30.894;2023-02-21T02:45:47;97851.86;;;4.12;100.00
43681;BME280;29281;50.356;30.894;2023-02-21T02:46:50;97849.59;;;4.08;100.00
43681;BME280;29281;50.356;30.894;2023-02-21T02:47:57;97852.09;;;4.09;100.00
43681;BME280;29281;50.356;30.894;2023-02-21T02:49:04;97846.25;;;4.06;100.00
43681;BME280;29281;50.356;30.894;2023-02-21T02:50:07;97855.78;;;4.18;100.00
43681;BME280;29281;50.356;30.894;2023-02-21T02:51:12;97851.59;;;4.15;100.00
43681;BME280;29281;50.356;30.894;2023-02-21T02:52:17;97856.13;;;4.13;100.00
43681;BME280;29281;50.356;30.894;2023-02-21T02:53:21;97846.34;;;4.15;100.00
43681;BME280;29281;50.356;30.894;2023-02-21T02:54:24;97848.97;;;4.15;100.00
43681;BME280;29281;50.356;30.894;2023-02-21T02:55:33;97841.81;;;4.17;100.00
43681;BME280;29281;50.356;30.894;2023-02-21T02:56:35;97843.33;;;4.31;100.00
43681;BME280;29281;50.356;30.894;2023-02-21T02:57:38;97861.39;;;4.24;100.00
43681;BME280;29281;50.356;30.894;2023-02-21T02:58:56;97847.78;;;4.19;100.00
43681;BME280;29281;50.356;30.894;2023-02-21T02:59:55;97843.45;;;4.30;100.00
43681;BME280;29281;50.356;30.894;2023-02-21T03:01:08;97857.09;;;4.23;100.00
43681;BME280;29281;50.356;30.894;2023-02-21T03:03:23;97856.40;;;4.10;100.00
43681;BME280;29281;50.356;30.894;2023-02-21T03:04:44;97853.16;;;4.18;100.00
43681;BME280;29281;50.356;30.894;2023-02-21T03:05:52;97857.22;;;4.22;100.00
43681;BME280;29281;50.356;30.894;2023-02-21T03:10:47;97857.70;;;4.27;100.00
43681;BME280;29281;50.356;30.894;2023-02-21T03:11:55;97861.25;;;4.37;100.00
43681;BME280;29281;50.356;30.894;2023-02-21T03:14:19;97865.52;;;4.49;100.00
43681;BME280;29281;50.356;30.894;2023-02-21T03:15:24;97865.19;;;4.32;100.00
43681;BME280;29281;50.356;30.894;2023-02-21T03:17:35;97868.56;;;4.22;100.00
43681;BME280;29281;50.356;30.894;2023-02-21T03:18:41;97870.47;;;4.20;100.00
43681;BME280;29281;50.356;30.894;2023-02-21T03:19:43;97878.58;;;4.17;100.00
43681;BME280;29281;50.356;30.894;2023-02-21T03:20:50;97886.92;;;4.34;100.00
43681;BME280;29281;50.356;30.894;2023-02-21T03:21:57;97879.28;;;4.31;100.00
43681;BME280;29281;50.356;30.894;2023-02-21T03:23:04;97875.94;;;4.40;100.00
43681;BME280;29281;50.356;30.894;2023-02-21T03:24:09;97876.16;;;4.48;100.00
43681;BME280;29281;50.356;30.894;2023-02-21T03:25:14;97881.44;;;4.37;100.00
43681;BME280;29281;50.356;30.894;2023-02-21T03:26:20;97874.63;;;4.34;100.00
43681;BME280;29281;50.356;30.894;2023-02-21T03:27:25;97878.66;;;4.49;100.00
43681;BME280;29281;50.356;30.894;2023-02-21T03:28:35;97881.52;;;4.46;100.00
43681;BME280;29281;50.356;30.894;2023-02-21T03:29:39;97877.48;;;4.31;100.00
43681;BME280;29281;50.356;30.894;2023-02-21T03:30:43;97878.45;;;4.41;100.00
43681;BME280;29281;50.356;30.894;2023-02-21T03:31:59;97886.06;;;4.44;100.00
43681;BME280;29281;50.356;30.894;2023-02-21T03:32:52;97872.80;;;4.46;100.00
43681;BME280;29281;50.356;30.894;2023-02-21T03:33:58;97878.45;;;4.41;100.00
43681;BME280;29281;50.356;30.894;2023-02-21T03:35:02;97861.02;;;4.40;100.00
43681;BME280;29281;50.356;30.894;2023-02-21T03:36:10;97870.17;;;4.46;100.00
43681;BME280;29281;50.356;30.894;2023-02-21T03:37:32;97868.03;;;4.51;100.00
43681;BME280;29281;50.356;30.894;2023-02-21T03:38:37;97880.13;;;4.42;100.00
43681;BME280;29281;50.356;30.894;2023-02-21T03:39:40;97885.95;;;4.46;100.00
43681;BME280;29281;50.356;30.894;2023-02-21T03:40:43;97889.29;;;4.48;100.00
43681;BME280;29281;50.356;30.894;2023-02-21T03:41:46;97894.40;;;4.60;100.00
43681;BME280;29281;50.356;30.894;2023-02-21T03:42:50;97880.97;;;4.75;100.00
43681;BME280;29281;50.356;30.894;2023-02-21T03:43:53;97889.45;;;4.78;100.00
43681;BME280;29281;50.356;30.894;2023-02-21T03:44:57;97887.42;;;4.82;100.00
43681;BME280;29281;50.356;30.894;2023-02-21T03:46:00;97888.86;;;4.75;100.00
43681;BME280;29281;50.356;30.894;2023-02-21T03:47:08;97890.09;;;4.71;100.00
43681;BME280;29281;50.356;30.894;2023-02-21T03:48:08;97886.70;;;4.80;100.00
43681;BME280;29281;50.356;30.894;2023-02-21T03:49:13;97886.94;;;4.88;100.00
43681;BME280;29281;50.356;30.894;2023-02-21T03:50:20;97882.95;;;4.93;100.00
43681;BME280;29281;50.356;30.894;2023-02-21T03:51:23;97890.11;;;5.03;100.00
43681;BME280;29281;50.356;30.894;2023-02-21T03:52:26;97879.36;;;4.94;100.00
43681;BME280;29281;50.356;30.894;2023-02-21T03:53:29;97884.30;;;4.88;100.00
43681;BME280;29281;50.356;30.894;2023-02-21T03:54:35;97879.66;;;4.80;100.00
43681;BME280;29281;50.356;30.894;2023-02-21T03:55:39;97885.67;;;4.71;100.00
43681;BME280;29281;50.356;30.894;2023-02-21T03:56:43;97892.73;;;4.59;100.00
43681;BME280;29281;50.356;30.894;2023-02-21T03:57:57;97880.33;;;4.50;100.00
43681;BME280;29281;50.356;30.894;2023-02-21T03:59:02;97878.90;;;4.46;100.00
43681;BME280;29281;50.356;30.894;2023-02-21T04:00:04;97875.67;;;4.54;100.00
43681;BME280;29281;50.356;30.894;2023-02-21T04:01:09;97877.83;;;4.49;100.00
43681;BME280;29281;50.356;30.894;2023-02-21T04:02:12;97876.75;;;4.51;100.00
43681;BME280;29281;50.356;30.894;2023-02-21T04:03:15;97867.78;;;4.54;100.00
43681;BME280;29281;50.356;30.894;2023-02-21T04:04:29;97887.50;;;4.48;100.00
43681;BME280;29281;50.356;30.894;2023-02-21T04:05:34;97876.18;;;4.37;100.00
43681;BME280;29281;50.356;30.894;2023-02-21T04:06:39;97871.64;;;4.39;100.00
43681;BME280;29281;50.356;30.894;2023-02-21T04:07:43;97872.36;;;4.41;100.00
43681;BME280;29281;50.356;30.894;2023-02-21T04:08:49;97886.81;;;4.35;100.00
43681;BME280;29281;50.356;30.894;2023-02-21T04:09:55;97873.05;;;4.54;100.00
43681;BME280;29281;50.356;30.894;2023-02-21T04:11:02;97868.39;;;4.46;100.00
43681;BME280;29281;50.356;30.894;2023-02-21T04:12:07;97883.32;;;4.46;100.00
43681;BME280;29281;50.356;30.894;2023-02-21T04:13:12;97888.34;;;4.49;100.00
43681;BME280;29281;50.356;30.894;2023-02-21T04:14:18;97883.32;;;4.46;100.00
43681;BME280;29281;50.356;30.894;2023-02-21T04:15:21;97878.78;;;4.48;100.00
43681;BME280;29281;50.356;30.894;2023-02-21T04:16:24;97884.78;;;4.39;100.00
43681;BME280;29281;50.356;30.894;2023-02-21T04:17:28;97877.85;;;4.38;100.00
43681;BME280;29281;50.356;30.894;2023-02-21T04:18:33;97884.16;;;4.46;100.00
43681;BME280;29281;50.356;30.894;2023-02-21T04:19:41;97879.14;;;4.43;100.00
43681;BME280;29281;50.356;30.894;2023-02-21T04:20:44;97883.70;;;4.41;100.00
43681;BME280;29281;50.356;30.894;2023-02-21T04:21:49;97888.97;;;4.41;100.00
43681;BME280;29281;50.356;30.894;2023-02-21T04:22:52;97890.13;;;4.48;100.00
43681;BME280;29281;50.356;30.894;2023-02-21T04:23:57;97876.27;;;4.46;100.00
43681;BME280;29281;50.356;30.894;2023-02-21T04:25:02;97870.66;;;4.51;100.00
43681;BME280;29281;50.356;30.894;2023-02-21T04:26:10;97882.75;;;4.42;100.00
43681;BME280;29281;50.356;30.894;2023-02-21T04:27:19;97868.39;;;4.46;100.00
43681;BME280;29281;50.356;30.894;2023-02-21T04:28:26;97877.61;;;4.41;100.00
43681;BME280;29281;50.356;30.894;2023-02-21T04:29:31;97862.89;;;4.49;100.00
43681;BME280;29281;50.356;30.894;2023-02-21T04:30:35;97863.64;;;4.40;100.00
43681;BME280;29281;50.356;30.894;2023-02-21T04:31:39;97872.69;;;4.47;100.00
43681;BME280;29281;50.356;30.894;2023-02-21T04:32:44;97860.17;;;4.40;100.00
43681;BME280;29281;50.356;30.894;2023-02-21T04:33:49;97866.50;;;4.37;100.00
43681;BME280;29281;50.356;30.894;2023-02-21T04:34:59;97871.88;;;4.36;100.00
43681;BME280;29281;50.356;30.894;2023-02-21T04:36:02;97857.07;;;4.35;100.00
43681;BME280;29281;50.356;30.894;2023-02-21T04:37:09;97860.17;;;4.40;100.00
43681;BME280;29281;50.356;30.894;2023-02-21T04:38:12;97863.97;;;4.47;100.00
43681;BME280;29281;50.356;30.894;2023-02-21T04:39:15;97862.65;;;4.52;100.00
43681;BME280;29281;50.356;30.894;2023-02-21T04:40:22;97870.92;;;4.37;100.00
43681;BME280;29281;50.356;30.894;2023-02-21T04:41:26;97862.41;;;4.44;100.00
43681;BME280;29281;50.356;30.894;2023-02-21T04:42:30;97871.73;;;4.48;100.00
43681;BME280;29281;50.356;30.894;2023-02-21T04:43:32;97858.59;;;4.48;100.00
43681;BME280;29281;50.356;30.894;2023-02-21T04:44:37;97865.04;;;4.44;100.00
43681;BME280;29281;50.356;30.894;2023-02-21T04:45:44;97868.23;;;4.59;100.00
43681;BME280;29281;50.356;30.894;2023-02-21T04:46:46;97871.02;;;4.57;100.00
43681;BME280;29281;50.356;30.894;2023-02-21T04:47:49;97873.77;;;4.56;100.00
43681;BME280;29281;50.356;30.894;2023-02-21T04:48:52;97864.80;;;4.47;100.00
43681;BME280;29281;50.356;30.894;2023-02-21T04:49:55;97871.61;;;4.50;100.00
43681;BME280;29281;50.356;30.894;2023-02-21T04:50:59;97874.23;;;4.50;100.00
43681;BME280;29281;50.356;30.894;2023-02-21T04:52:04;97870.30;;;4.55;100.00
43681;BME280;29281;50.356;30.894;2023-02-21T04:53:08;97878.06;;;4.57;100.00
43681;BME280;29281;50.356;30.894;2023-02-21T04:54:11;97868.23;;;4.59;100.00
43681;BME280;29281;50.356;30.894;2023-02-21T04:55:15;97873.48;;;4.70;100.00
43681;BME280;29281;50.356;30.894;2023-02-21T04:56:19;97870.17;;;4.57;100.00
43681;BME280;29281;50.356;30.894;2023-02-21T04:57:22;97869.30;;;4.68;100.00
43681;BME280;29281;50.356;30.894;2023-02-21T04:58:27;97877.06;;;4.69;100.00
43681;BME280;29281;50.356;30.894;2023-02-21T04:59:32;97880.93;;;4.54;100.00
43681;BME280;29281;50.356;30.894;2023-02-21T05:00:35;97881.05;;;4.52;100.00
43681;BME280;29281;50.356;30.894;2023-02-21T05:01:37;97881.64;;;4.56;100.00
43681;BME280;29281;50.356;30.894;2023-02-21T05:02:41;97881.64;;;4.56;100.00
43681;BME280;29281;50.356;30.894;2023-02-21T05:03:47;97886.39;;;4.62;100.00
43681;BME280;29281;50.356;30.894;2023-02-21T05:04:50;97888.42;;;4.70;100.00
43681;BME280;29281;50.356;30.894;2023-02-21T05:05:54;97888.54;;;4.68;100.00
43681;BME280;29281;50.356;30.894;2023-02-21T05:06:58;97894.00;;;4.76;100.00
43681;BME280;29281;50.356;30.894;2023-02-21T05:08:02;97895.43;;;4.80;100.00
43681;BME280;29281;50.356;30.894;2023-02-21T05:09:05;97889.97;;;4.72;100.00
43681;BME280;29281;50.356;30.894;2023-02-21T05:10:09;97901.45;;;4.71;100.00
43681;BME280;29281;50.356;30.894;2023-02-21T05:11:13;97901.92;;;4.65;100.00
43681;BME280;29281;50.356;30.894;2023-02-21T05:12:16;97896.42;;;4.68;100.00
43681;BME280;29281;50.356;30.894;2023-02-21T05:13:20;97905.19;;;4.57;100.00
43681;BME280;29281;50.356;30.894;2023-02-21T05:14:24;97903.39;;;4.58;100.00
43681;BME280;29281;50.356;30.894;2023-02-21T05:15:26;97898.49;;;4.53;100.00
43681;BME280;29281;50.356;30.894;2023-02-21T05:16:33;97894.31;;;4.51;100.00
43681;BME280;29281;50.356;30.894;2023-02-21T05:17:36;97899.20;;;4.55;100.00
43681;BME280;29281;50.356;30.894;2023-02-21T05:18:42;97905.42;;;4.54;100.00
43681;BME280;29281;50.356;30.894;2023-02-21T05:19:46;97892.40;;;4.53;100.00
43681;BME280;29281;50.356;30.894;2023-02-21T05:20:50;97898.84;;;4.49;100.00
43681;BME280;29281;50.356;30.894;2023-02-21T05:21:54;97901.23;;;4.52;100.00
43681;BME280;29281;50.356;30.894;2023-02-21T05:22:57;97895.11;;;4.63;100.00
43681;BME280;29281;50.356;30.894;2023-02-21T05:24:02;97893.56;;;4.60;100.00
43681;BME280;29281;50.356;30.894;2023-02-21T05:25:07;97894.63;;;4.69;100.00
43681;BME280;29281;50.356;30.894;2023-02-21T05:26:11;97895.80;;;4.76;100.00
43681;BME280;29281;50.356;30.894;2023-02-21T05:27:15;97895.43;;;4.80;100.00
43681;BME280;29281;50.356;30.894;2023-02-21T05:28:18;97900.48;;;4.72;100.00
43681;BME280;29281;50.356;30.894;2023-02-21T05:29:21;97896.63;;;4.76;100.00
43681;BME280;29281;50.356;30.894;2023-02-21T05:30:25;97888.86;;;4.75;100.00
43681;BME280;29281;50.356;30.894;2023-02-21T05:31:28;97896.67;;;4.65;100.00
43681;BME280;29281;50.356;30.894;2023-02-21T05:32:31;97896.27;;;4.81;100.00
43681;BME280;29281;50.356;30.894;2023-02-21T05:33:34;97894.67;;;4.89;100.00
43681;BME280;29281;50.356;30.894;2023-02-21T05:34:39;97899.91;;;5.01;100.00
43681;BME280;29281;50.356;30.894;2023-02-21T05:35:45;97895.86;;;4.97;100.00
43681;BME280;29281;50.356;30.894;2023-02-21T05:36:53;97898.41;;;4.87;100.00
43681;BME280;29281;50.356;30.894;2023-02-21T05:37:56;97894.67;;;4.89;100.00
43681;BME280;29281;50.356;30.894;2023-02-21T05:38:59;97892.31;;;4.86;100.00
43681;BME280;29281;50.356;30.894;2023-02-21T05:40:03;97894.83;;;4.88;100.00
43681;BME280;29281;50.356;30.894;2023-02-21T05:41:07;97893.27;;;4.85;100.00
43681;BME280;29281;50.356;30.894;2023-02-21T05:42:12;97892.27;;;4.98;100.00
43681;BME280;29281;50.356;30.894;2023-02-21T05:43:16;97886.05;;;4.99;100.00
43681;BME280;29281;50.356;30.894;2023-02-21T05:44:18;97892.73;;;5.03;100.00
43681;BME280;29281;50.356;30.894;2023-02-21T05:45:21;97893.42;;;5.05;100.00
43681;BME280;29281;50.356;30.894;2023-02-21T05:46:28;97897.82;;;5.15;100.00
43681;BME280;29281;50.356;30.894;2023-02-21T05:47:32;97895.44;;;5.12;100.00
43681;BME280;29281;50.356;30.894;2023-02-21T05:48:36;97894.84;;;5.09;100.00
43681;BME280;29281;50.356;30.894;2023-02-21T05:49:41;97894.94;;;5.18;100.00
43681;BME280;29281;50.356;30.894;2023-02-21T05:50:44;97890.83;;;5.25;100.00
43681;BME280;29281;50.356;30.894;2023-02-21T05:51:47;97897.70;;;5.38;100.00
43681;BME280;29281;50.356;30.894;2023-02-21T05:52:50;97897.27;;;5.33;100.00
43681;BME280;29281;50.356;30.894;2023-02-21T05:53:53;97901.41;;;5.35;100.00
43681;BME280;29281;50.356;30.894;2023-02-21T05:54:55;97900.61;;;5.35;100.00
43681;BME280;29281;50.356;30.894;2023-02-21T05:55:58;97901.77;;;5.62;100.00
43681;BME280;29281;50.356;30.894;2023-02-21T05:57:01;97907.45;;;5.68;100.00
43681;BME280;29281;50.356;30.894;2023-02-21T05:58:05;97894.91;;;5.81;100.00
43681;BME280;29281;50.356;30.894;2023-02-21T05:59:08;97907.79;;;5.74;100.00
43681;BME280;29281;50.356;30.894;2023-02-21T06:00:17;97912.84;;;5.66;100.00
43681;BME280;29281;50.356;30.894;2023-02-21T06:01:21;97910.11;;;5.88;100.00
43681;BME280;29281;50.356;30.894;2023-02-21T06:02:24;97913.63;;;5.98;100.00
43681;BME280;29281;50.356;30.894;2023-02-21T06:03:27;97906.87;;;5.85;100.00
43681;BME280;29281;50.356;30.894;2023-02-21T06:04:33;97902.56;;;5.84;100.00
43681;BME280;29281;50.356;30.894;2023-02-21T06:05:36;97907.83;;;5.84;100.00
43681;BME280;29281;50.356;30.894;2023-02-21T06:06:39;97910.70;;;5.92;100.00
43681;BME280;29281;50.356;30.894;2023-02-21T06:07:43;97915.02;;;5.82;100.00
43681;BME280;29281;50.356;30.894;2023-02-21T06:08:47;97893.70;;;6.06;100.00
43681;BME280;29281;50.356;30.894;2023-02-21T06:09:50;97907.13;;;6.03;100.00
43681;BME280;29281;50.356;30.894;2023-02-21T06:10:53;97904.41;;;6.14;100.00
43681;BME280;29281;50.356;30.894;2023-02-21T06:11:57;97905.84;;;5.97;100.00
43681;BME280;29281;50.356;30.894;2023-02-21T06:13:02;97920.34;;;6.12;100.00
43681;BME280;29281;50.356;30.894;2023-02-21T06:14:06;97915.61;;;6.37;100.00
43681;BME280;29281;50.356;30.894;2023-02-21T06:15:10;97923.80;;;6.43;100.00
43681;BME280;29281;50.356;30.894;2023-02-21T06:16:14;97915.03;;;6.33;100.00
43681;BME280;29281;50.356;30.894;2023-02-21T06:17:18;97908.30;;;6.10;100.00
43681;BME280;29281;50.356;30.894;2023-02-21T06:18:21;97911.22;;;6.16;100.00
43681;BME280;29281;50.356;30.894;2023-02-21T06:19:24;97923.17;;;6.20;100.00
43681;BME280;29281;50.356;30.894;2023-02-21T06:20:27;97919.13;;;6.16;100.00
43681;BME280;29281;50.356;30.894;2023-02-21T06:21:30;97911.30;;;6.35;100.00
43681;BME280;29281;50.356;30.894;2023-02-21T06:22:33;97916.71;;;6.93;100.00
43681;BME280;29281;50.356;30.894;2023-02-21T06:23:35;97915.19;;;7.49;100.00
43681;BME280;29281;50.356;30.894;2023-02-21T06:24:38;97924.19;;;7.85;100.00
43681;BME280;29281;50.356;30.894;2023-02-21T06:25:41;97925.44;;;8.27;100.00
43681;BME280;29281;50.356;30.894;2023-02-21T06:26:44;97921.50;;;8.51;99.59
43681;BME280;29281;50.356;30.894;2023-02-21T06:27:48;97925.61;;;7.79;100.00
43681;BME280;29281;50.356;30.894;2023-02-21T06:28:51;97908.95;;;7.40;100.00
43681;BME280;29281;50.356;30.894;2023-02-21T06:29:56;97915.91;;;7.12;100.00
43681;BME280;29281;50.356;30.894;2023-02-21T06:30:59;97914.91;;;7.03;100.00
43681;BME280;29281;50.356;30.894;2023-02-21T06:32:05;97915.91;;;7.12;100.00
43681;BME280;29281;50.356;30.894;2023-02-21T06:33:08;97925.90;;;6.99;100.00
43681;BME280;29281;50.356;30.894;2023-02-21T06:34:11;97920.71;;;6.78;100.00
43681;BME280;29281;50.356;30.894;2023-02-21T06:35:14;97921.16;;;6.93;100.00
43681;BME280;29281;50.356;30.894;2023-02-21T06:36:18;97926.03;;;6.97;100.00
43681;BME280;29281;50.356;30.894;2023-02-21T06:37:21;97925.33;;;7.05;100.00